createdAt,value
2023-03-10T00:00:37.664Z,41.30
2023-03-10T00:03:05.817Z,42.08
2023-03-10T00:05:35.347Z,40.85
2023-03-10T00:08:03.492Z,41.63
2023-03-10T00:10:31.756Z,40.58
2023-03-10T00:12:59.875Z,40.38
2023-03-10T00:15:28.084Z,40.47
2023-03-10T00:17:56.209Z,37.47
2023-03-10T00:20:24.320Z,38.67
2023-03-10T00:22:53.768Z,37.33
2023-03-10T00:25:21.927Z,37.28
2023-03-10T00:27:52.603Z,38.78
2023-03-10T00:30:20.932Z,38.10
2023-03-10T00:32:50.895Z,37.05
2023-03-10T00:35:19.407Z,37.28
2023-03-10T00:37:47.673Z,37.90
2023-03-10T00:40:18.759Z,37.05
2023-03-10T00:42:46.959Z,35.47
2023-03-10T00:45:15.050Z,34.03
2023-03-10T00:47:43.210Z,35.88
2023-03-10T00:50:12.744Z,33.90
2023-03-10T00:52:41.180Z,34.05
2023-03-10T00:55:09.917Z,34.50
2023-03-10T00:57:39.439Z,33.17
2023-03-10T01:00:09.797Z,33.90
2023-03-10T01:02:37.915Z,33.20
2023-03-10T01:05:06.409Z,32.75
2023-03-10T01:07:34.539Z,32.05
2023-03-10T01:10:02.602Z,33.47
2023-03-10T01:12:30.725Z,32.17
2023-03-10T01:15:00.263Z,32.13
2023-03-10T01:17:28.420Z,31.42
2023-03-10T01:19:56.522Z,30.27
2023-03-10T01:22:24.847Z,30.60
2023-03-10T01:24:52.934Z,30.20
2023-03-10T01:27:21.048Z,30.33
2023-03-10T01:29:49.136Z,28.50
2023-03-10T01:32:18.602Z,29.92
2023-03-10T01:34:46.754Z,30.08
2023-03-10T01:37:14.863Z,29.25
2023-03-10T01:39:43.296Z,29.20
2023-03-10T01:42:11.398Z,28.83
2023-03-10T01:44:40.410Z,29.17
2023-03-10T01:47:08.476Z,27.80
2023-03-10T01:49:39.998Z,27.63
2023-03-10T01:52:10.566Z,26.70
2023-03-10T01:54:43.661Z,26.63
2023-03-10T01:57:11.891Z,27.15
2023-03-10T01:59:40.821Z,26.13
2023-03-10T02:02:09.016Z,26.30
2023-03-10T02:04:42.020Z,26.20
2023-03-10T02:07:10.236Z,26.10
2023-03-10T02:09:39.872Z,25.00
2023-03-10T02:12:09.039Z,25.55
2023-03-10T02:14:37.128Z,25.95
2023-03-10T02:17:05.904Z,24.95
2023-03-10T02:19:40.955Z,24.80
2023-03-10T02:22:10.058Z,24.80
2023-03-10T02:24:43.376Z,23.83
2023-03-10T02:27:18.520Z,24.63
2023-03-10T02:29:58.329Z,23.70
2023-03-10T02:32:29.016Z,23.55
2023-03-10T02:34:57.176Z,22.48
2023-03-10T02:37:28.603Z,23.35
2023-03-10T02:39:57.001Z,23.35
2023-03-10T02:42:27.739Z,22.08
2023-03-10T02:44:55.897Z,22.27
2023-03-10T02:47:24.098Z,23.02
2023-03-10T02:49:52.305Z,21.92
2023-03-10T02:52:26.586Z,22.75
2023-03-10T02:54:55.057Z,22.33
2023-03-10T02:57:23.141Z,22.23
2023-03-10T02:59:52.849Z,20.85
2023-03-10T03:02:20.932Z,22.30
2023-03-10T03:04:49.023Z,21.13
2023-03-10T03:07:17.147Z,21.30
2023-03-10T03:09:45.693Z,20.95
2023-03-10T03:12:14.253Z,21.20
2023-03-10T03:14:42.598Z,21.17
2023-03-10T03:17:12.148Z,21.67
2023-03-10T03:19:40.245Z,21.27
2023-03-10T03:22:08.692Z,20.58
2023-03-10T03:24:36.879Z,19.90
2023-03-10T03:27:06.025Z,19.23
2023-03-10T03:29:34.576Z,20.15
2023-03-10T03:32:02.767Z,20.55
2023-03-10T03:34:35.876Z,20.65
2023-03-10T03:37:06.336Z,20.63
2023-03-10T03:39:38.468Z,19.58
2023-03-10T03:42:09.120Z,19.90
2023-03-10T03:44:45.091Z,19.40
2023-03-10T03:47:14.134Z,19.30
2023-03-10T03:49:44.319Z,19.02
2023-03-10T03:52:13.483Z,18.38
2023-03-10T03:54:41.608Z,19.05
2023-03-10T03:57:09.893Z,18.83
2023-03-10T03:59:38.030Z,17.95
2023-03-10T04:02:06.241Z,18.10
2023-03-10T04:04:34.739Z,17.92
2023-03-10T04:07:04.374Z,18.27
2023-03-10T04:09:32.759Z,18.20
2023-03-10T04:12:00.999Z,18.10
2023-03-10T04:14:29.133Z,17.70
2023-03-10T04:16:58.201Z,17.60
2023-03-10T04:19:26.457Z,17.45
2023-03-10T04:21:59.855Z,17.48
2023-03-10T04:24:29.470Z,17.10
2023-03-10T04:26:57.640Z,17.42
2023-03-10T04:29:27.574Z,17.27
2023-03-10T04:32:05.228Z,17.90
2023-03-10T04:34:37.741Z,17.70
2023-03-10T04:37:06.139Z,17.00
2023-03-10T04:39:37.047Z,17.15
2023-03-10T04:42:06.602Z,16.48
2023-03-10T04:44:35.137Z,16.40
2023-03-10T04:47:06.081Z,17.10
2023-03-10T04:49:34.207Z,15.90
2023-03-10T04:52:03.317Z,16.33
2023-03-10T04:54:31.746Z,15.15
2023-03-10T04:57:01.930Z,16.48
2023-03-10T04:59:30.609Z,16.08
2023-03-10T05:01:58.863Z,16.05
2023-03-10T05:04:27.023Z,16.88
2023-03-10T05:06:56.750Z,15.88
2023-03-10T05:09:32.070Z,16.83
2023-03-10T05:12:01.632Z,15.35
2023-03-10T05:14:32.957Z,16.00
2023-03-10T05:17:02.043Z,16.15
2023-03-10T05:19:31.352Z,15.57
2023-03-10T05:22:01.268Z,15.13
2023-03-10T05:24:29.421Z,15.60
2023-03-10T05:26:57.571Z,15.48
2023-03-10T05:29:27.730Z,15.75
2023-03-10T05:32:01.338Z,14.85
2023-03-10T05:34:34.926Z,15.02
2023-03-10T05:37:04.590Z,15.02
2023-03-10T05:39:32.899Z,15.20
2023-03-10T05:42:04.729Z,15.15
2023-03-10T05:44:36.736Z,14.88
2023-03-10T05:47:07.129Z,14.38
2023-03-10T05:49:37.460Z,14.63
2023-03-10T05:52:07.538Z,14.40
2023-03-10T05:54:35.999Z,14.63
2023-03-10T05:57:04.101Z,14.02
2023-03-10T05:59:33.327Z,14.48
2023-03-10T06:02:02.905Z,14.77
2023-03-10T06:04:33.237Z,14.07
2023-03-10T06:07:01.761Z,13.70
2023-03-10T06:09:30.413Z,14.38
2023-03-10T06:11:58.550Z,13.82
2023-03-10T06:14:26.732Z,14.30
2023-03-10T06:16:55.224Z,13.93
2023-03-10T06:19:24.945Z,13.05
2023-03-10T06:21:53.129Z,14.10
2023-03-10T06:24:21.333Z,13.10
2023-03-10T06:26:50.188Z,13.77
2023-03-10T06:29:18.339Z,13.10
2023-03-10T06:31:46.504Z,13.18
2023-03-10T06:34:14.632Z,13.10
2023-03-10T06:36:44.125Z,13.02
2023-03-10T06:39:12.196Z,12.65
2023-03-10T06:41:40.426Z,12.57
2023-03-10T06:44:08.533Z,12.48
2023-03-10T06:46:36.636Z,12.80
2023-03-10T06:49:04.730Z,12.32
2023-03-10T06:51:32.833Z,12.65
2023-03-10T06:54:02.318Z,12.30
2023-03-10T06:56:30.481Z,11.95
2023-03-10T06:58:58.585Z,11.75
2023-03-10T07:01:27.789Z,12.85
2023-03-10T07:03:55.997Z,13.73
2023-03-10T07:06:24.505Z,15.18
2023-03-10T07:08:52.692Z,16.90
2023-03-10T07:11:22.243Z,16.63
2023-03-10T07:13:50.365Z,16.15
2023-03-10T07:16:18.510Z,20.60
2023-03-10T07:18:46.801Z,21.63
2023-03-10T07:21:17.483Z,29.88
2023-03-10T07:23:45.674Z,23.20
2023-03-10T07:26:14.689Z,24.73
2023-03-10T07:28:44.246Z,25.42
2023-03-10T07:31:13.319Z,25.55
2023-03-10T07:33:41.474Z,25.05
2023-03-10T07:36:10.833Z,25.83
2023-03-10T07:38:38.948Z,26.70
2023-03-10T07:41:09.819Z,26.80
2023-03-10T07:43:37.939Z,26.88
2023-03-10T07:46:08.278Z,26.67
2023-03-10T07:48:36.542Z,26.05
2023-03-10T07:51:04.942Z,27.73
2023-03-10T07:53:33.220Z,26.15
2023-03-10T07:56:01.369Z,27.08
2023-03-10T07:58:29.471Z,28.10
2023-03-10T08:00:57.806Z,27.70
2023-03-10T08:03:27.898Z,27.15
2023-03-10T08:05:56.061Z,26.92
2023-03-10T08:08:24.287Z,27.45
2023-03-10T08:10:57.777Z,28.35
2023-03-10T08:13:25.921Z,28.92
2023-03-10T08:15:54.135Z,28.02
2023-03-10T08:18:23.433Z,27.48
2023-03-10T08:20:52.885Z,29.23
2023-03-10T08:23:20.979Z,29.35
2023-03-10T08:25:49.064Z,29.15
2023-03-10T08:28:17.285Z,29.15
2023-03-10T08:31:02.567Z,30.95
2023-03-10T08:33:31.620Z,30.73
2023-03-10T08:36:05.745Z,30.27
2023-03-10T08:38:34.116Z,30.48
2023-03-10T08:41:10.152Z,30.38
2023-03-10T08:43:38.426Z,30.63
2023-03-10T08:46:08.564Z,31.52
2023-03-10T08:48:37.114Z,30.38
2023-03-10T08:51:07.072Z,30.75
2023-03-10T08:53:35.528Z,31.65
2023-03-10T08:56:03.646Z,30.50
2023-03-10T08:58:31.720Z,31.58
2023-03-10T09:00:59.818Z,31.90
2023-03-10T09:03:31.000Z,32.10
2023-03-10T09:05:59.652Z,32.47
2023-03-10T09:08:29.088Z,33.50
2023-03-10T09:10:57.177Z,32.17
2023-03-10T09:13:25.341Z,33.90
2023-03-10T09:15:53.717Z,35.30
2023-03-10T09:18:21.980Z,34.28
2023-03-10T09:20:50.092Z,37.88
2023-03-10T09:23:18.539Z,37.47
2023-03-10T09:25:48.186Z,38.92
2023-03-10T09:28:18.555Z,38.80
2023-03-10T09:30:48.172Z,39.65
2023-03-10T09:33:17.304Z,41.00
2023-03-10T09:35:52.795Z,39.20
2023-03-10T09:38:25.718Z,41.13
2023-03-10T09:40:57.697Z,39.22
2023-03-10T09:43:25.861Z,39.85
2023-03-10T09:45:55.863Z,40.75
2023-03-10T09:48:37.605Z,42.72
2023-03-10T09:51:07.324Z,40.90
2023-03-10T09:53:43.004Z,41.50
2023-03-10T09:56:14.401Z,40.75
2023-03-10T09:58:43.718Z,41.55
2023-03-10T10:01:16.202Z,40.58
2023-03-10T10:03:53.120Z,40.85
2023-03-10T10:06:26.698Z,40.92
2023-03-10T10:09:04.195Z,41.08
2023-03-10T10:11:34.420Z,40.45
2023-03-10T10:14:28.328Z,40.45
2023-03-10T10:17:00.218Z,33.58
2023-03-10T10:19:28.829Z,29.98
2023-03-10T10:22:00.050Z,29.02
2023-03-10T10:24:28.197Z,28.98
2023-03-10T10:26:57.645Z,27.33
2023-03-10T10:29:27.081Z,27.48
2023-03-10T10:32:06.648Z,28.48
2023-03-10T10:34:34.852Z,28.92
2023-03-10T10:37:03.251Z,28.67
2023-03-10T10:39:33.130Z,28.55
2023-03-10T10:42:20.074Z,28.50
2023-03-10T10:44:48.255Z,28.83
2023-03-10T10:47:26.534Z,28.73
2023-03-10T10:49:54.712Z,29.35
2023-03-10T10:52:23.651Z,28.77
2023-03-10T10:54:56.351Z,28.50
2023-03-10T10:57:29.840Z,28.73
2023-03-10T11:00:00.834Z,28.42
2023-03-10T11:02:32.432Z,28.58
2023-03-10T11:05:08.947Z,28.52
2023-03-10T11:07:37.121Z,28.33
2023-03-10T11:10:10.117Z,28.45
2023-03-10T11:12:40.804Z,28.48
2023-03-10T11:15:14.687Z,27.30
2023-03-10T11:17:44.236Z,26.80
2023-03-10T11:20:19.799Z,26.88
2023-03-10T11:22:48.613Z,27.58
2023-03-10T11:25:36.901Z,27.33
2023-03-10T11:28:36.740Z,28.50
2023-03-10T11:31:10.014Z,27.15
2023-03-10T11:33:42.449Z,26.98
2023-03-10T11:36:18.291Z,28.20
2023-03-10T11:38:47.471Z,28.15
2023-03-10T11:41:16.616Z,28.17
2023-03-10T11:43:51.917Z,28.70
2023-03-10T11:46:22.845Z,28.67
2023-03-10T11:48:56.088Z,30.17
2023-03-10T11:51:28.314Z,31.10
2023-03-10T11:53:57.254Z,29.45
2023-03-10T11:56:25.784Z,29.50
2023-03-10T11:58:56.826Z,30.20
2023-03-10T12:01:26.383Z,29.65
2023-03-10T12:03:57.644Z,29.45
2023-03-10T12:06:28.399Z,30.10
2023-03-10T12:08:56.698Z,30.38
2023-03-10T12:11:27.127Z,31.17
2023-03-10T12:13:59.970Z,30.17
2023-03-10T12:16:28.949Z,31.05
2023-03-10T12:18:57.052Z,30.13
2023-03-10T12:21:25.665Z,30.02
2023-03-10T12:23:54.268Z,31.45
2023-03-10T12:26:59.901Z,38.15
2023-03-10T12:29:36.885Z,33.78
2023-03-10T12:32:05.597Z,30.85
2023-03-10T12:34:33.951Z,31.65
2023-03-10T12:37:07.431Z,31.30
2023-03-10T12:39:40.076Z,30.30
2023-03-10T12:42:29.650Z,31.10
2023-03-10T12:45:21.463Z,30.63
2023-03-10T12:47:54.668Z,30.65
2023-03-10T12:50:30.695Z,30.65
2023-03-10T12:53:02.368Z,30.67
2023-03-10T12:55:30.571Z,31.42
2023-03-10T12:58:06.034Z,32.35
2023-03-10T13:00:48.659Z,50.72
2023-03-10T13:03:24.971Z,45.47
2023-03-10T13:06:05.438Z,39.78
2023-03-10T13:08:38.105Z,37.42
2023-03-10T13:11:06.761Z,38.85
2023-03-10T13:13:35.789Z,38.15
2023-03-10T13:16:06.907Z,36.97
2023-03-10T13:18:35.176Z,37.85
2023-03-10T13:21:03.240Z,38.47
2023-03-10T13:23:34.353Z,37.20
2023-03-10T13:26:03.183Z,37.60
2023-03-10T13:28:32.069Z,35.58
2023-03-10T13:31:19.535Z,37.45
2023-03-10T13:33:53.477Z,35.63
2023-03-10T13:36:32.735Z,35.97
2023-03-10T13:39:01.968Z,35.85
2023-03-10T13:41:30.282Z,34.92
2023-03-10T13:43:58.497Z,35.75
2023-03-10T13:46:28.981Z,35.22
2023-03-10T13:49:03.592Z,35.30
2023-03-10T13:51:32.561Z,34.90
2023-03-10T13:54:13.144Z,34.67
2023-03-10T13:56:42.092Z,36.03
2023-03-10T13:59:14.777Z,34.65
2023-03-10T14:01:47.129Z,34.65
2023-03-10T14:04:17.524Z,33.97
2023-03-10T14:06:45.640Z,34.40
2023-03-10T14:09:15.316Z,33.53
2023-03-10T14:11:44.627Z,34.28
2023-03-10T14:14:12.854Z,34.65
2023-03-10T14:17:04.075Z,33.30
2023-03-10T14:19:48.664Z,31.80
2023-03-10T14:22:31.133Z,33.22
2023-03-10T14:24:59.596Z,32.35
2023-03-10T14:27:27.997Z,33.13
2023-03-10T14:29:56.940Z,32.03
2023-03-10T14:32:26.462Z,32.50
2023-03-10T14:34:54.858Z,32.38
2023-03-10T14:37:23.997Z,32.83
2023-03-10T14:39:52.103Z,32.80
2023-03-10T14:42:21.889Z,31.95
2023-03-10T14:44:50.297Z,30.85
2023-03-10T14:47:19.007Z,31.40
2023-03-10T14:49:48.626Z,30.85
2023-03-10T14:52:17.623Z,29.65
2023-03-10T14:54:45.832Z,30.55
2023-03-10T14:57:13.960Z,29.67
2023-03-10T14:59:42.067Z,28.48
2023-03-10T15:02:21.849Z,28.08
2023-03-10T15:04:51.430Z,27.88
2023-03-10T15:07:19.565Z,28.90
2023-03-10T15:09:48.498Z,28.83
2023-03-10T15:12:18.256Z,27.95
2023-03-10T15:14:52.260Z,26.58
2023-03-10T15:17:20.425Z,18.98
2023-03-10T15:19:48.467Z,47.85
2023-03-10T15:22:17.974Z,23.70
2023-03-10T15:24:46.044Z,24.27
2023-03-10T15:27:14.171Z,24.60
2023-03-10T15:29:42.255Z,24.30
2023-03-10T15:32:10.421Z,23.83
2023-03-10T15:34:38.502Z,23.23
2023-03-10T15:37:08.191Z,22.30
2023-03-10T15:39:37.738Z,22.38
2023-03-10T15:42:05.893Z,22.75
2023-03-10T15:44:34.001Z,24.83
2023-03-10T15:47:02.178Z,33.03
2023-03-10T15:49:30.429Z,24.98
2023-03-10T15:51:59.850Z,33.42
2023-03-10T15:54:27.918Z,27.42
2023-03-10T15:56:57.565Z,25.95
2023-03-10T15:59:26.071Z,25.00
2023-03-10T16:01:54.204Z,26.45
2023-03-10T16:04:23.811Z,25.63
2023-03-10T16:06:51.923Z,25.08
2023-03-10T16:09:20.135Z,25.52
2023-03-10T16:11:49.065Z,25.00
2023-03-10T16:14:18.556Z,24.48
2023-03-10T16:16:47.032Z,25.17
2023-03-10T16:19:15.280Z,24.92
2023-03-10T16:21:45.368Z,24.73
2023-03-10T16:24:13.934Z,24.48
2023-03-10T16:26:44.442Z,24.48
2023-03-10T16:29:12.836Z,23.95
2023-03-10T16:31:42.994Z,24.38
2023-03-10T16:34:11.191Z,23.75
2023-03-10T16:36:39.266Z,22.90
2023-03-10T16:39:08.956Z,23.17
2023-03-10T16:41:37.168Z,23.25
2023-03-10T16:44:05.983Z,24.00
2023-03-10T16:46:34.112Z,22.27
2023-03-10T16:49:03.590Z,22.98
2023-03-10T16:51:32.991Z,23.00
2023-03-10T16:54:02.066Z,22.42
2023-03-10T16:56:30.435Z,21.48
2023-03-10T16:58:58.548Z,21.92
2023-03-10T17:01:26.710Z,21.55
2023-03-10T17:03:55.160Z,21.88
2023-03-10T17:06:25.976Z,22.65
2023-03-10T17:08:54.524Z,20.98
2023-03-10T17:11:23.599Z,21.63
2023-03-10T17:13:53.259Z,21.75
2023-03-10T17:16:23.471Z,20.83
2023-03-10T17:18:51.825Z,20.58
2023-03-10T17:21:21.084Z,20.80
2023-03-10T17:23:50.656Z,20.02
2023-03-10T17:26:19.154Z,19.13
2023-03-10T17:28:48.080Z,19.20
2023-03-10T17:31:17.515Z,18.90
2023-03-10T17:33:45.771Z,18.88
2023-03-10T17:36:14.721Z,18.83
2023-03-10T17:38:43.082Z,19.88
2023-03-10T17:41:13.554Z,20.08
2023-03-10T17:43:41.890Z,20.42
2023-03-10T17:46:12.041Z,20.48
2023-03-10T17:48:40.247Z,22.17
2023-03-10T17:51:08.413Z,21.42
2023-03-10T17:53:36.536Z,22.05
2023-03-10T17:56:05.251Z,25.40
2023-03-10T17:58:35.109Z,25.90
2023-03-10T18:01:08.133Z,27.60
2023-03-10T18:03:37.154Z,33.40
2023-03-10T18:06:05.926Z,35.03
2023-03-10T18:08:34.052Z,36.42
2023-03-10T18:11:04.330Z,41.25
2023-03-10T18:13:34.092Z,45.28
2023-03-10T18:16:02.356Z,43.15
2023-03-10T18:18:30.632Z,44.50
2023-03-10T18:20:58.756Z,46.00
2023-03-10T18:23:27.051Z,45.38
2023-03-10T18:25:55.155Z,50.35
2023-03-10T18:28:23.526Z,48.58
2023-03-10T18:30:53.408Z,48.47
2023-03-10T18:33:21.533Z,50.92
2023-03-10T18:35:49.835Z,49.15
2023-03-10T18:38:18.315Z,50.45
2023-03-10T18:40:46.413Z,47.78
2023-03-10T18:43:14.510Z,48.72
2023-03-10T18:45:44.614Z,47.60
2023-03-10T18:48:14.245Z,51.85
2023-03-10T18:50:42.792Z,48.78
2023-03-10T18:53:11.033Z,49.17
2023-03-10T18:55:39.148Z,48.47
2023-03-10T18:58:07.282Z,50.22
2023-03-10T19:00:35.499Z,49.50
2023-03-10T19:03:03.751Z,50.90
2023-03-10T19:05:33.387Z,51.63
2023-03-10T19:08:01.512Z,52.35
2023-03-10T19:10:29.584Z,52.50
2023-03-10T19:12:57.905Z,49.17
2023-03-10T19:15:26.048Z,51.17
2023-03-10T19:17:54.137Z,50.08
2023-03-10T19:20:22.515Z,49.90
2023-03-10T19:22:52.267Z,50.22
2023-03-10T19:25:20.590Z,50.38
2023-03-10T19:27:49.061Z,53.15
2023-03-10T19:30:18.058Z,53.88
2023-03-10T19:32:46.184Z,55.28
2023-03-10T19:35:14.794Z,54.33
2023-03-10T19:37:43.991Z,55.25
2023-03-10T19:40:15.775Z,57.92
2023-03-10T19:42:44.000Z,58.00
2023-03-10T19:45:12.903Z,58.08
2023-03-10T19:47:41.614Z,58.33
2023-03-10T19:50:11.275Z,56.53
2023-03-10T19:52:39.419Z,57.78
2023-03-10T19:55:09.651Z,58.97
2023-03-10T19:57:41.044Z,56.60
2023-03-10T20:00:13.881Z,55.92
2023-03-10T20:02:44.671Z,57.55
2023-03-10T20:05:14.696Z,58.47
2023-03-10T20:07:42.927Z,57.17
2023-03-10T20:10:12.326Z,81.88
2023-03-10T20:12:41.879Z,113.82
2023-03-10T20:15:10.393Z,136.05
2023-03-10T20:17:38.519Z,161.18
2023-03-10T20:20:10.605Z,139.38
2023-03-10T20:22:39.671Z,137.27
2023-03-10T20:25:08.756Z,128.55
2023-03-10T20:27:36.978Z,128.75
2023-03-10T20:30:08.659Z,121.32
2023-03-10T20:32:36.891Z,115.75
2023-03-10T20:35:05.309Z,114.07
2023-03-10T20:37:33.794Z,113.45
2023-03-10T20:40:01.944Z,109.18
2023-03-10T20:42:30.082Z,107.47
2023-03-10T20:44:58.273Z,81.78
2023-03-10T20:47:27.777Z,83.97
2023-03-10T20:49:55.925Z,87.07
2023-03-10T20:52:24.117Z,85.78
2023-03-10T20:54:54.429Z,86.43
2023-03-10T20:57:22.550Z,86.65
2023-03-10T20:59:50.754Z,87.18
2023-03-10T21:02:18.980Z,87.03
2023-03-10T21:04:49.152Z,87.63
2023-03-10T21:07:17.290Z,88.55
2023-03-10T21:09:45.642Z,88.47
2023-03-10T21:12:18.470Z,88.18
2023-03-10T21:14:46.901Z,90.15
2023-03-10T21:17:14.994Z,88.75
2023-03-10T21:19:43.191Z,89.10
2023-03-10T21:22:12.868Z,89.93
2023-03-10T21:24:41.008Z,88.43
2023-03-10T21:27:09.081Z,89.80
2023-03-10T21:29:37.199Z,89.00
2023-03-10T21:32:05.329Z,86.40
2023-03-10T21:34:33.467Z,88.65
2023-03-10T21:37:01.587Z,86.78
2023-03-10T21:39:31.095Z,86.78
2023-03-10T21:41:59.167Z,89.40
2023-03-10T21:44:27.280Z,84.43
2023-03-10T21:46:55.401Z,83.93
2023-03-10T21:49:23.524Z,84.15
2023-03-10T21:51:51.666Z,85.30
2023-03-10T21:54:19.820Z,83.65
2023-03-10T21:56:49.330Z,84.68
2023-03-10T21:59:17.750Z,82.25
2023-03-10T22:01:45.963Z,81.43
2023-03-10T22:04:14.387Z,82.32
2023-03-10T22:06:42.644Z,80.75
2023-03-10T22:09:10.705Z,79.90
2023-03-10T22:11:38.832Z,79.95
2023-03-10T22:14:08.309Z,78.47
2023-03-10T22:16:36.425Z,78.13
2023-03-10T22:19:04.556Z,77.30
2023-03-10T22:21:32.623Z,80.78
2023-03-10T22:24:01.154Z,78.53
2023-03-10T22:26:29.209Z,79.00
2023-03-10T22:28:57.437Z,78.50
2023-03-10T22:31:26.931Z,75.18
2023-03-10T22:33:55.048Z,74.93
2023-03-10T22:36:23.178Z,74.57
2023-03-10T22:38:51.293Z,73.88
2023-03-10T22:41:19.481Z,73.32
2023-03-10T22:43:47.588Z,73.72
2023-03-10T22:46:16.398Z,72.15
2023-03-10T22:48:45.928Z,71.85
2023-03-10T22:51:15.348Z,70.03
2023-03-10T22:53:43.401Z,70.88
2023-03-10T22:56:11.495Z,69.82
2023-03-10T22:58:39.642Z,68.03
2023-03-10T23:01:07.937Z,67.13
2023-03-10T23:03:36.167Z,66.40
2023-03-10T23:06:06.668Z,66.10
2023-03-10T23:08:36.172Z,64.85
2023-03-10T23:11:04.666Z,65.85
2023-03-10T23:13:32.728Z,63.90
2023-03-10T23:16:00.948Z,64.88
2023-03-10T23:18:29.142Z,63.95
2023-03-10T23:20:57.204Z,64.82
2023-03-10T23:23:26.704Z,62.70
2023-03-10T23:25:54.784Z,61.72
2023-03-10T23:28:22.914Z,61.65
2023-03-10T23:30:51.604Z,60.28
2023-03-10T23:33:20.732Z,61.13
2023-03-10T23:35:58.762Z,61.05
2023-03-10T23:38:28.460Z,60.17
2023-03-10T23:40:56.913Z,59.60
2023-03-10T23:43:25.127Z,58.38
2023-03-10T23:45:53.315Z,56.80
2023-03-10T23:48:21.727Z,57.67
2023-03-10T23:50:49.830Z,56.97
2023-03-10T23:53:20.648Z,56.10
2023-03-10T23:55:50.457Z,56.92
2023-03-10T23:58:19.321Z,56.03
